Terminal Aerodrome Forecast
Issued by NWS

Home | Current Version | Previous Version | Graphics & Text | Print | Product List | Glossary On
Versions: 1 2 3 4 5 6 7 8 9 10 11 12 13 14 15 16 17 18
949
FTUS43 KMPX 211259 AAA
TAFAXN
TAF AMD
KAXN 211259Z 2113/2212 18010KT P6SM SHRA VCTS BKN045CB BKN090
     FM211330 VRB10G20KT P6SM SHRA VCTS SCT020CB BKN040
     FM211430 22008KT P6SM VCSH SCT040 BKN090
     FM211600 35007KT P6SM SCT120 BKN250
     FM220000 34005KT P6SM SCT250
     FM220600 07004KT P6SM SCT250=

USA.gov is the U.S. government's official web portal to all federal, state and local government web resources and services.